Licenciado Adolfo Lopez Mateos International Airport
MMTO : now visible

Airfield :











YOU CAN JOIN US ON...

 
LOGIN :

Register | Disclaimer

   EN    FR    IT 

 









Legend :    VFR   Marginal VFR   IFR   Intensive IFR   Very Intensive IFR
Visi :
Ceiling :
>= 8 km
>= 3000ft
5 to 8 km
1000 to 3000 ft
1500m to 5 km
500 to 1000 ft
800 to 1500m
200 to 500 ft
< 800m
< 200 ft
Symbols :   Thunderstorms  Fog  Heavy snow  Heavy precipitations  Wind > 20 kt







- Airport Elevation : 8466 ft
- IATA code : TLC


MMTO - Licenciado Adolfo Lopez Mateos International

CURRENT METAR :
  • 191848Z 33003KT 5SM BKN015CB BKN070 BKN200 19/10 A3033 RMK 8/963 HZY

EXPIRED METARs :
  • 191750Z 34004KT 4SM BKN015CB BKN070 19/10 A3036 RMK SLP075 57019 969 8/330 HZ
  • 191650Z 32004KT 4SM SCT015 BKN070 17/11 A3038 RMK 8/230 HZ

TAF COR TAF MMTO
Valid from the 19 at 18:00 until the 21 at 00:00 UTC


191824Z 1918/2024 16005KT 4SM HZ BKN015CB BKN070 TX21/1921Z TN11/2013Z
FM192000 18012KT 5SM HZ VC RA BKN015CB OVC070
TEMPO 1920/1924 3SM TSRA
FM200100 09005KT 5SM -RA BKN015 OVC070
FM200600 00000KT 5SM HZ SCT015 BKN070
FM201000 00000KT 3SM BR HZ BKN010
TEMPO 2011/2015 1/2SM FG VV002
FM201600 12005KT 4SM HZ SCT015 BKN070
FM202000 12010KT 5SM HZ BKN020CB BKN070
PROB40 2021/2024 VC RA
No reported NOTAMs for that airfield.



MET'MAP, your aeronautical weather chart ! - Copyright ORBIFLY December 2007 - Disclaimer

ORBIFLY MET'MAP TEAM :

Programming & Development : Alexandra Zaïnal
Concept & Development : Baudouin d'Aumeries
Co-Development & Prog : Marc-Olivier Méhu
Technical & hardware support : Manuel Goepfert

Contact : metmap@orbifly.com




SOURCES & CREDITS :

   NOAA       Earth
Advisory